Time;durP1;ratioP1;P1;durP2;ratioP2;P2;SDS_P1;SDS_P2;PMS_P1;PMS_P2;Temp;Humidity;BMP_temperature;BMP_pressure;BME280_temperature;BME280_humidity;BME280_pressure;Samples;Min_cycle;Max_cycle;Signal;HPM_P1;HPM_P2
2022/02/15 00:00:21;;;;;;;6.57;1.60;;;6.60;99.90;;;;;;5070906;28;20538;-73
2022/02/15 00:02:47;;;;;;;6.47;1.40;;;6.60;99.90;;;;;;5071108;28;20048;-71
2022/02/15 00:05:12;;;;;;;5.07;1.35;;;6.60;99.90;;;;;;5069638;28;20089;-71
2022/02/15 00:07:38;;;;;;;6.20;1.70;;;6.50;99.90;;;;;;5071319;28;20110;-71
2022/02/15 00:10:05;;;;;;;4.88;1.60;;;6.60;99.90;;;;;;5072036;28;20400;-71
2022/02/15 00:12:31;;;;;;;5.10;1.30;;;6.60;99.90;;;;;;5075025;28;20070;-71
2022/02/15 00:14:56;;;;;;;4.75;1.40;;;6.60;99.90;;;;;;5054687;28;20119;-71
2022/02/15 00:17:22;;;;;;;5.60;1.38;;;6.60;99.90;;;;;;5070401;28;20041;-71
2022/02/15 00:19:48;;;;;;;4.25;1.40;;;6.60;99.90;;;;;;5072142;28;20053;-71
2022/02/15 00:22:14;;;;;;;3.78;1.63;;;6.60;99.90;;;;;;5069936;28;20036;-72
2022/02/15 00:24:40;;;;;;;4.50;1.65;;;6.60;99.90;;;;;;5071269;28;20032;-71
2022/02/15 00:27:05;;;;;;;4.60;1.35;;;6.60;99.90;;;;;;5054583;28;20394;-71
2022/02/15 00:29:31;;;;;;;6.55;2.20;;;6.60;99.90;;;;;;5054917;28;20534;-72
2022/02/15 00:31:57;;;;;;;5.68;1.70;;;6.70;99.90;;;;;;5072006;28;20107;-71
2022/02/15 00:34:22;;;;;;;5.18;1.83;;;6.60;99.90;;;;;;5054731;28;20032;-72
2022/02/15 00:36:48;;;;;;;5.07;1.83;;;6.60;99.90;;;;;;5070016;28;20053;-72
2022/02/15 00:39:13;;;;;;;6.28;2.13;;;6.70;99.90;;;;;;5071936;28;20032;-72
2022/02/15 00:41:39;;;;;;;5.60;2.30;;;6.70;99.90;;;;;;5054850;28;20071;-71
2022/02/15 00:44:05;;;;;;;9.65;2.10;;;6.60;99.90;;;;;;5071595;28;20119;-71
2022/02/15 00:46:30;;;;;;;11.18;2.70;;;6.60;99.90;;;;;;5071595;28;20048;-72
2022/02/15 00:48:56;;;;;;;7.80;2.00;;;6.60;99.90;;;;;;5054490;28;20048;-71
2022/02/15 00:51:22;;;;;;;7.78;2.20;;;6.70;99.90;;;;;;5066153;28;20036;-72
2022/02/15 00:53:47;;;;;;;8.40;2.17;;;6.70;99.90;;;;;;5070101;28;20063;-71
2022/02/15 00:56:13;;;;;;;6.53;2.10;;;6.80;99.90;;;;;;5070063;28;20474;-71
2022/02/15 00:58:38;;;;;;;7.30;2.15;;;6.70;99.90;;;;;;5071609;28;20032;-71
2022/02/15 01:01:04;;;;;;;5.57;2.13;;;6.70;99.90;;;;;;5064220;28;20538;-71
2022/02/15 01:03:29;;;;;;;6.43;2.17;;;6.70;99.90;;;;;;5069929;28;20055;-71
2022/02/15 01:05:57;;;;;;;7.63;2.08;;;6.60;99.90;;;;;;5062582;28;20127;-71
2022/02/15 01:08:23;;;;;;;8.05;2.42;;;6.70;99.90;;;;;;5070040;28;20074;-71
2022/02/15 01:10:49;;;;;;;5.05;2.30;;;6.60;99.90;;;;;;5072984;28;20536;-71
2022/02/15 01:13:15;;;;;;;5.47;2.30;;;6.60;99.90;;;;;;5082674;28;20043;-72
2022/02/15 01:15:40;;;;;;;8.70;2.17;;;6.60;99.90;;;;;;5070158;28;20060;-72
2022/02/15 01:18:06;;;;;;;8.23;2.20;;;6.60;99.90;;;;;;5070558;28;20047;-73
2022/02/15 01:20:32;;;;;;;8.57;2.85;;;6.70;99.90;;;;;;5070232;28;20068;-71
2022/02/15 01:22:57;;;;;;;5.82;2.20;;;6.70;99.90;;;;;;5070642;28;20050;-73
2022/02/15 01:25:23;;;;;;;5.72;1.77;;;6.60;99.90;;;;;;5050886;28;20039;-71
2022/02/15 01:27:49;;;;;;;8.98;2.78;;;6.60;99.90;;;;;;5068436;28;20036;-71
2022/02/15 01:30:15;;;;;;;5.32;1.80;;;6.60;99.90;;;;;;5069725;28;20045;-72
2022/02/15 01:32:41;;;;;;;7.97;2.53;;;6.70;99.90;;;;;;5053343;28;20043;-72
2022/02/15 01:35:07;;;;;;;6.20;2.10;;;6.60;99.90;;;;;;5068935;28;20098;-72
2022/02/15 01:37:32;;;;;;;7.85;2.40;;;6.60;99.90;;;;;;5064992;28;20044;-72
2022/02/15 01:39:58;;;;;;;4.47;2.05;;;6.60;99.90;;;;;;5069504;28;20054;-72
2022/02/15 01:42:23;;;;;;;4.65;2.13;;;6.70;99.90;;;;;;5053135;28;20056;-72
2022/02/15 01:44:49;;;;;;;6.65;2.28;;;6.60;99.90;;;;;;5070169;28;20048;-72
2022/02/15 01:47:22;;;;;;;5.53;2.58;;;6.60;99.90;;;;;;5070116;28;20048;-72
2022/02/15 01:49:47;;;;;;;8.13;2.60;;;6.60;99.90;;;;;;5069443;28;20041;-72
2022/02/15 01:52:13;;;;;;;7.10;2.50;;;6.70;99.90;;;;;;5068837;28;20067;-72
2022/02/15 01:54:39;;;;;;;6.93;2.45;;;6.70;99.90;;;;;;5051372;28;20044;-72
2022/02/15 01:57:04;;;;;;;7.80;2.70;;;6.70;99.90;;;;;;5069588;28;20072;-72
2022/02/15 01:59:32;;;;;;;11.52;2.63;;;6.80;99.90;;;;;;5069765;28;20037;-72
2022/02/15 02:01:58;;;;;;;11.35;2.78;;;6.80;99.90;;;;;;5069351;28;20683;-72
2022/02/15 02:07:07;;;;;;;6.43;2.85;;;6.80;99.90;;;;;;5068800;28;20158;-72
2022/02/15 02:09:33;;;;;;;8.98;2.25;;;6.80;99.90;;;;;;5068219;28;20044;-72
2022/02/15 02:11:59;;;;;;;10.50;2.35;;;6.80;99.90;;;;;;5078399;28;20128;-72
2022/02/15 02:14:25;;;;;;;8.07;2.67;;;6.80;99.90;;;;;;5051708;28;20093;-72
2022/02/15 02:16:50;;;;;;;7.05;2.20;;;6.80;99.90;;;;;;5069115;28;20040;-71
2022/02/15 02:19:16;;;;;;;6.82;2.22;;;6.80;99.90;;;;;;5069251;28;20386;-71
2022/02/15 02:21:42;;;;;;;8.45;2.20;;;6.80;99.90;;;;;;5068747;28;20089;-72
2022/02/15 02:24:07;;;;;;;7.90;2.15;;;6.80;99.90;;;;;;5052526;28;20038;-72
2022/02/15 02:26:33;;;;;;;6.15;2.20;;;6.70;99.90;;;;;;5068905;28;20090;-72
2022/02/15 02:29:00;;;;;;;9.10;2.33;;;6.80;99.90;;;;;;5061593;28;20045;-72
2022/02/15 02:31:26;;;;;;;10.48;2.85;;;6.90;99.90;;;;;;5069479;28;20040;-72
2022/02/15 02:33:51;;;;;;;6.28;1.92;;;6.80;99.90;;;;;;5069172;28;20090;-72
2022/02/15 02:36:17;;;;;;;8.02;2.35;;;6.80;99.90;;;;;;5065785;28;20052;-72
2022/02/15 02:38:43;;;;;;;9.60;2.35;;;6.70;99.90;;;;;;5069300;28;20045;-72
2022/02/15 02:41:08;;;;;;;6.93;2.17;;;6.70;99.90;;;;;;5052006;28;20125;-72
2022/02/15 02:43:34;;;;;;;8.75;2.25;;;6.80;99.90;;;;;;5069593;28;20036;-72
2022/02/15 02:45:59;;;;;;;10.05;2.80;;;6.70;99.90;;;;;;5069160;28;20086;-72
2022/02/15 02:48:25;;;;;;;7.38;2.00;;;6.70;99.90;;;;;;5054457;28;20305;-72
2022/02/15 02:50:50;;;;;;;6.88;2.47;;;6.70;99.90;;;;;;5072433;28;20111;-72
2022/02/15 02:53:16;;;;;;;7.22;2.58;;;6.70;99.90;;;;;;5071383;28;20151;-72
2022/02/15 02:55:42;;;;;;;7.18;2.20;;;6.70;99.90;;;;;;5067395;28;20044;-71
2022/02/15 02:58:08;;;;;;;8.07;2.28;;;6.80;99.90;;;;;;5072791;28;20036;-71
2022/02/15 03:00:33;;;;;;;6.70;2.35;;;6.70;99.90;;;;;;5072929;28;20036;-71
2022/02/15 03:03:04;;;;;;;6.07;2.30;;;6.70;99.90;;;;;;5064167;28;20117;-71
2022/02/15 03:05:30;;;;;;;5.57;1.88;;;6.70;99.90;;;;;;5056122;28;20177;-71
2022/02/15 03:07:55;;;;;;;9.30;2.53;;;6.70;99.90;;;;;;5072888;28;20454;-72
2022/02/15 03:10:21;;;;;;;7.82;2.28;;;6.70;99.90;;;;;;5073158;28;20051;-72
2022/02/15 03:12:46;;;;;;;10.52;3.00;;;6.70;99.90;;;;;;5071079;28;20448;-72
2022/02/15 03:15:12;;;;;;;10.27;2.50;;;6.70;99.90;;;;;;5072335;28;20037;-72
2022/02/15 03:17:37;;;;;;;8.27;2.28;;;6.60;99.90;;;;;;5072719;28;20463;-72
2022/02/15 03:20:04;;;;;;;10.95;2.67;;;6.70;99.90;;;;;;5072118;28;20029;-72
2022/02/15 03:22:29;;;;;;;8.15;2.10;;;6.70;99.90;;;;;;5071084;28;20032;-72
2022/02/15 03:24:55;;;;;;;8.13;2.35;;;6.70;99.90;;;;;;5072171;28;20040;-72
2022/02/15 03:27:20;;;;;;;8.90;2.60;;;6.70;99.90;;;;;;5072532;28;20040;-72
2022/02/15 03:29:46;;;;;;;8.02;2.65;;;6.60;99.90;;;;;;5054491;28;20041;-72
2022/02/15 03:32:11;;;;;;;9.30;2.40;;;6.60;99.90;;;;;;5054760;28;20379;-72
2022/02/15 03:34:37;;;;;;;11.45;2.70;;;6.70;99.90;;;;;;5072200;28;20494;-72
2022/02/15 03:37:03;;;;;;;8.93;2.58;;;6.70;99.90;;;;;;5068826;28;20055;-72
2022/02/15 03:39:28;;;;;;;9.07;2.75;;;6.70;99.90;;;;;;5069865;28;20405;-72
2022/02/15 03:44:38;;;;;;;11.30;3.00;;;6.70;99.90;;;;;;5070245;28;20059;-72
2022/02/15 03:47:04;;;;;;;15.32;3.08;;;6.70;99.90;;;;;;5050776;28;20037;-72
2022/02/15 03:49:30;;;;;;;10.15;3.05;;;6.70;99.90;;;;;;5048656;28;20445;-72
2022/02/15 03:51:55;;;;;;;8.25;2.78;;;6.70;99.90;;;;;;5069139;28;20048;-72
2022/02/15 03:54:21;;;;;;;10.13;3.15;;;6.70;99.90;;;;;;5070609;28;20825;-72
2022/02/15 03:56:46;;;;;;;10.38;2.70;;;6.70;99.90;;;;;;5068561;28;20397;-72
2022/02/15 03:59:12;;;;;;;10.85;3.22;;;6.80;99.90;;;;;;5069547;28;20040;-72
2022/02/15 04:01:37;;;;;;;13.95;2.92;;;6.90;99.90;;;;;;5068789;28;20044;-72
2022/02/15 04:04:03;;;;;;;13.13;3.53;;;6.80;99.90;;;;;;5067432;28;20071;-73
2022/02/15 04:06:29;;;;;;;8.48;3.75;;;6.80;99.90;;;;;;5070846;28;20074;-72
2022/02/15 04:08:55;;;;;;;11.25;3.08;;;6.80;99.90;;;;;;5070957;28;20444;-72
2022/02/15 04:11:20;;;;;;;8.65;3.05;;;6.80;99.90;;;;;;5078969;28;20044;-72
2022/02/15 04:13:46;;;;;;;13.30;2.97;;;6.80;99.90;;;;;;5075090;28;20041;-72
2022/02/15 04:16:13;;;;;;;10.25;3.03;;;6.80;99.90;;;;;;5070791;28;20028;-72
2022/02/15 04:18:43;;;;;;;11.48;3.70;;;6.70;99.90;;;;;;5071157;28;20167;-72
2022/02/15 04:21:12;;;;;;;10.50;3.75;;;6.70;99.90;;;;;;5076112;28;20029;-72
2022/02/15 04:23:38;;;;;;;9.93;3.10;;;6.70;99.90;;;;;;5054442;28;20047;-72
2022/02/15 04:26:03;;;;;;;9.63;3.75;;;6.70;99.90;;;;;;5070849;28;20040;-72
2022/02/15 04:28:29;;;;;;;12.07;3.90;;;6.70;99.90;;;;;;5054390;28;20059;-72
2022/02/15 04:30:54;;;;;;;8.40;4.25;;;6.70;99.90;;;;;;5054854;28;20055;-71
2022/02/15 04:33:20;;;;;;;11.02;3.42;;;6.70;99.90;;;;;;5071416;28;20121;-71
2022/02/15 04:35:45;;;;;;;10.70;3.60;;;6.80;99.90;;;;;;5069362;28;20055;-71
2022/02/15 04:38:11;;;;;;;11.57;5.15;;;6.80;99.90;;;;;;5071291;28;20048;-72
2022/02/15 04:40:38;;;;;;;11.13;4.00;;;6.70;99.90;;;;;;5054470;28;20040;-72
2022/02/15 04:43:04;;;;;;;10.38;4.53;;;6.70;99.90;;;;;;5038645;28;20089;-71
2022/02/15 04:45:29;;;;;;;10.85;3.65;;;6.70;99.90;;;;;;5070624;28;20135;-71
2022/02/15 04:47:55;;;;;;;11.32;3.97;;;6.70;99.90;;;;;;5071355;28;20044;-72
2022/02/15 04:50:20;;;;;;;10.45;3.95;;;6.70;99.90;;;;;;5111145;22;20046;-72
2022/02/15 04:52:46;;;;;;;8.70;3.55;;;6.70;99.90;;;;;;5062458;28;20060;-72
2022/02/15 04:55:12;;;;;;;10.57;3.90;;;6.70;99.90;;;;;;5067170;28;20109;-72
2022/02/15 04:57:37;;;;;;;12.82;4.50;;;6.70;99.90;;;;;;5061587;28;20036;-72
2022/02/15 05:00:05;;;;;;;10.57;4.47;;;6.70;99.90;;;;;;5051420;28;20036;-73
2022/02/15 05:02:30;;;;;;;9.57;4.57;;;6.60;99.90;;;;;;5071464;28;20390;-72
2022/02/15 05:04:58;;;;;;;13.35;4.47;;;6.60;99.90;;;;;;5071759;28;20050;-72
2022/02/15 05:07:24;;;;;;;9.85;5.05;;;6.60;99.90;;;;;;5071351;28;20040;-72
2022/02/15 05:09:50;;;;;;;14.50;4.65;;;6.50;99.90;;;;;;5064636;28;20102;-72
2022/02/15 05:12:17;;;;;;;10.82;5.25;;;6.50;99.90;;;;;;5073425;28;20048;-72
2022/02/15 05:14:42;;;;;;;14.15;4.13;;;6.40;99.90;;;;;;5071079;28;20088;-73
2022/02/15 05:17:08;;;;;;;11.10;5.43;;;6.30;99.90;;;;;;5067484;28;20229;-73
2022/02/15 05:19:34;;;;;;;10.93;4.47;;;6.30;99.90;;;;;;5063335;28;20089;-72
2022/02/15 05:22:00;;;;;;;11.88;4.75;;;6.20;99.90;;;;;;5071426;28;20049;-72
2022/02/15 05:24:26;;;;;;;11.10;4.97;;;6.20;99.90;;;;;;5054031;28;20051;-72
2022/02/15 05:26:52;;;;;;;10.63;5.32;;;6.20;99.90;;;;;;5069668;28;20048;-72
2022/02/15 05:29:18;;;;;;;12.77;5.10;;;6.20;99.90;;;;;;5053902;28;20046;-72
2022/02/15 05:31:46;;;;;;;12.00;5.15;;;6.20;99.90;;;;;;5071866;28;20037;-72
2022/02/15 05:34:11;;;;;;;11.32;4.95;;;6.20;99.90;;;;;;5072501;28;20028;-72
2022/02/15 05:36:37;;;;;;;14.13;5.35;;;6.20;99.90;;;;;;5071080;28;20082;-72
2022/02/15 05:39:03;;;;;;;15.27;6.53;;;6.20;99.90;;;;;;5070119;28;20478;-72
2022/02/15 05:41:29;;;;;;;10.35;5.07;;;6.20;99.90;;;;;;5070521;28;20044;-72
2022/02/15 05:43:55;;;;;;;14.23;5.90;;;6.10;99.90;;;;;;5064213;28;20048;-72
2022/02/15 05:46:21;;;;;;;14.25;5.97;;;6.10;99.90;;;;;;5070657;28;20043;-72
2022/02/15 05:48:46;;;;;;;14.38;5.82;;;6.10;99.90;;;;;;5070870;28;20386;-72
2022/02/15 05:51:12;;;;;;;14.02;6.35;;;6.20;99.90;;;;;;5070583;28;20048;-72
2022/02/15 05:53:37;;;;;;;17.25;7.78;;;6.10;99.90;;;;;;5070688;28;20048;-72
2022/02/15 05:56:05;;;;;;;19.80;8.48;;;6.20;99.90;;;;;;5054105;28;20056;-72
2022/02/15 05:58:32;;;;;;;18.60;8.60;;;6.20;99.90;;;;;;5071938;28;20035;-73
2022/02/15 06:00:58;;;;;;;21.73;8.73;;;6.10;99.90;;;;;;5066660;28;20501;-72
2022/02/15 06:06:08;;;;;;;16.80;8.82;;;6.20;99.90;;;;;;5066243;28;20205;-72
2022/02/15 06:08:34;;;;;;;17.33;9.48;;;6.10;99.90;;;;;;5048646;28;20435;-72
2022/02/15 06:11:00;;;;;;;19.67;9.15;;;6.10;99.90;;;;;;5072340;28;20186;-72
2022/02/15 06:13:26;;;;;;;16.90;9.38;;;6.10;99.90;;;;;;5069734;28;20088;-72
2022/02/15 06:15:51;;;;;;;17.90;9.35;;;6.20;99.90;;;;;;5069732;28;20119;-72
2022/02/15 06:18:17;;;;;;;16.83;10.43;;;6.20;99.90;;;;;;5068699;28;20044;-72
2022/02/15 06:20:42;;;;;;;19.65;9.77;;;6.20;99.90;;;;;;5069853;28;20047;-72
2022/02/15 06:23:08;;;;;;;14.65;8.52;;;6.20;99.90;;;;;;5067778;28;20079;-72
2022/02/15 06:25:34;;;;;;;20.73;9.52;;;6.20;99.90;;;;;;5069763;28;20044;-72
2022/02/15 06:27:59;;;;;;;14.93;9.35;;;6.20;99.90;;;;;;5065786;28;20102;-72
2022/02/15 06:30:25;;;;;;;19.75;10.00;;;6.20;99.90;;;;;;5053759;28;20037;-72
2022/02/15 06:32:51;;;;;;;17.88;9.40;;;6.20;99.90;;;;;;5044445;28;20029;-72
2022/02/15 06:35:17;;;;;;;16.48;10.07;;;6.20;99.90;;;;;;5061103;28;20028;-72
2022/02/15 06:37:43;;;;;;;20.02;11.88;;;6.20;99.90;;;;;;5043956;28;20095;-72
2022/02/15 06:40:12;;;;;;;17.27;9.57;;;6.10;99.90;;;;;;5061032;28;20474;-72
2022/02/15 06:42:38;;;;;;;17.35;9.48;;;6.20;99.90;;;;;;5065033;28;20036;-72
2022/02/15 06:45:04;;;;;;;15.77;10.13;;;6.20;99.90;;;;;;5064758;28;20198;-72
2022/02/15 06:47:30;;;;;;;16.13;9.50;;;6.20;99.90;;;;;;5069220;28;20046;-72
2022/02/15 06:49:56;;;;;;;19.65;10.27;;;6.20;99.90;;;;;;5060235;28;20045;-72
2022/02/15 06:52:21;;;;;;;17.88;10.38;;;6.20;99.90;;;;;;5066571;28;20048;-72
2022/02/15 06:54:47;;;;;;;18.33;10.43;;;6.20;99.90;;;;;;5052415;28;20045;-72
2022/02/15 06:57:12;;;;;;;18.80;9.85;;;6.20;99.90;;;;;;5053548;28;20033;-72
2022/02/15 06:59:38;;;;;;;19.33;9.93;;;6.20;99.90;;;;;;5049636;28;20114;-72
2022/02/15 07:02:04;;;;;;;14.95;9.60;;;6.20;99.90;;;;;;5034062;28;20029;-72
2022/02/15 07:04:30;;;;;;;20.65;9.90;;;6.20;99.90;;;;;;5045214;28;20491;-72
2022/02/15 07:06:56;;;;;;;22.23;9.68;;;6.20;99.90;;;;;;5063674;28;20526;-72
2022/02/15 07:09:22;;;;;;;13.88;9.32;;;6.20;99.90;;;;;;5050496;28;20127;-76
2022/02/15 07:11:48;;;;;;;20.10;10.75;;;6.20;99.90;;;;;;5062960;28;20370;-72
2022/02/15 07:14:14;;;;;;;17.92;9.57;;;6.30;99.90;;;;;;5073532;28;20066;-72
2022/02/15 07:16:43;;;;;;;20.48;10.45;;;6.30;99.90;;;;;;5068233;28;20039;-72
2022/02/15 07:19:09;;;;;;;16.77;9.98;;;6.30;99.90;;;;;;5049932;28;20037;-72
2022/02/15 07:21:35;;;;;;;21.38;10.60;;;6.30;99.90;;;;;;5050147;28;20029;-73
2022/02/15 07:24:02;;;;;;;18.40;10.00;;;6.30;99.90;;;;;;5043222;28;20036;-73
2022/02/15 07:26:28;;;;;;;23.25;10.93;;;6.30;99.90;;;;;;5047716;28;20036;-73
2022/02/15 07:28:54;;;;;;;18.80;10.60;;;6.30;99.90;;;;;;5060639;28;20070;-73
2022/02/15 07:31:20;;;;;;;21.00;10.75;;;6.30;99.90;;;;;;5066988;28;20079;-73
2022/02/15 07:33:46;;;;;;;16.50;10.52;;;6.30;99.90;;;;;;5065936;28;20165;-73
2022/02/15 07:36:11;;;;;;;17.42;9.82;;;6.30;99.90;;;;;;5058150;28;20036;-73
2022/02/15 07:38:37;;;;;;;15.20;10.43;;;6.30;99.90;;;;;;5058686;28;20037;-73
2022/02/15 07:41:03;;;;;;;18.88;11.20;;;6.30;99.90;;;;;;5060802;28;20498;-73
2022/02/15 07:43:29;;;;;;;23.80;11.82;;;6.40;99.90;;;;;;5070192;28;20462;-73
2022/02/15 07:45:54;;;;;;;21.58;11.43;;;6.40;99.90;;;;;;5066319;28;20040;-73
2022/02/15 07:48:20;;;;;;;20.77;12.00;;;6.50;99.90;;;;;;5061072;28;20037;-73
2022/02/15 07:50:46;;;;;;;19.90;11.85;;;6.50;99.90;;;;;;5061335;28;20055;-73
2022/02/15 07:53:11;;;;;;;19.80;12.25;;;6.50;99.90;;;;;;5049924;28;20501;-73
2022/02/15 07:55:37;;;;;;;18.73;11.60;;;6.50;99.90;;;;;;5066878;28;20127;-73
2022/02/15 07:58:03;;;;;;;19.48;11.68;;;6.50;99.90;;;;;;5066615;28;20048;-72
2022/02/15 08:00:29;;;;;;;19.88;12.15;;;6.60;99.90;;;;;;5060297;28;20032;-72
2022/02/15 08:02:54;;;;;;;26.55;13.50;;;6.50;99.90;;;;;;5070928;28;20047;-72
2022/02/15 08:05:22;;;;;;;26.35;14.82;;;6.60;99.90;;;;;;5072720;28;20040;-75
2022/02/15 08:07:48;;;;;;;19.85;12.15;;;6.60;99.90;;;;;;5055689;28;20074;-75
2022/02/15 08:10:15;;;;;;;21.35;13.00;;;6.60;99.90;;;;;;5072652;28;20036;-75
2022/02/15 08:12:41;;;;;;;16.65;12.15;;;6.60;99.90;;;;;;5055533;28;20457;-74
2022/02/15 08:15:08;;;;;;;22.65;13.52;;;6.70;99.90;;;;;;5052550;28;20101;-74
2022/02/15 08:17:34;;;;;;;22.50;13.10;;;6.80;99.90;;;;;;5055523;28;20039;-74
2022/02/15 08:20:00;;;;;;;22.92;13.75;;;6.80;99.90;;;;;;5070521;28;20044;-74
2022/02/15 08:22:25;;;;;;;18.45;12.80;;;6.80;99.90;;;;;;5073355;28;20047;-74
2022/02/15 08:24:51;;;;;;;21.52;13.35;;;6.90;99.90;;;;;;5071632;28;20525;-73
2022/02/15 08:27:16;;;;;;;19.15;13.93;;;6.90;99.90;;;;;;5072337;28;20048;-74
2022/02/15 08:29:44;;;;;;;25.65;13.38;;;7.00;99.90;;;;;;5071841;28;20044;-75
2022/02/15 08:32:10;;;;;;;22.10;13.93;;;7.00;99.90;;;;;;5054820;28;20041;-75
2022/02/15 08:34:36;;;;;;;24.13;14.68;;;7.00;99.90;;;;;;5071864;28;20504;-75
2022/02/15 08:37:02;;;;;;;22.95;14.40;;;7.10;99.90;;;;;;5065991;28;20029;-75
2022/02/15 08:39:28;;;;;;;22.88;14.90;;;7.10;99.90;;;;;;5057560;28;20041;-75
2022/02/15 08:41:54;;;;;;;24.70;14.57;;;7.10;99.90;;;;;;5065710;28;20139;-75
2022/02/15 08:44:20;;;;;;;25.55;14.48;;;7.10;99.90;;;;;;5063635;28;20378;-75
2022/02/15 08:46:45;;;;;;;23.75;14.98;;;7.10;99.90;;;;;;5060837;28;20043;-75
2022/02/15 08:49:11;;;;;;;26.52;16.85;;;7.20;99.90;;;;;;5064999;28;20190;-75
2022/02/15 08:51:39;;;;;;;21.77;15.43;;;7.20;99.90;;;;;;5063705;28;20116;-75
2022/02/15 08:54:05;;;;;;;21.63;15.05;;;7.20;99.90;;;;;;5061277;28;20064;-75
2022/02/15 08:56:31;;;;;;;22.45;13.13;;;7.30;99.90;;;;;;5063192;28;20163;-75
2022/02/15 08:58:57;;;;;;;26.13;16.15;;;7.30;99.90;;;;;;5069432;28;20479;-75
2022/02/15 09:01:22;;;;;;;21.38;13.95;;;7.40;99.90;;;;;;5065937;28;20048;-75
2022/02/15 09:03:48;;;;;;;21.80;13.50;;;7.40;99.90;;;;;;5070445;28;20393;-75
2022/02/15 09:06:14;;;;;;;17.95;12.05;;;7.50;99.90;;;;;;5070122;28;20028;-76
2022/02/15 09:08:40;;;;;;;26.70;13.55;;;7.50;99.90;;;;;;5064052;28;21365;-75
2022/02/15 09:11:05;;;;;;;24.58;13.27;;;7.60;99.90;;;;;;5063990;28;20044;-75
2022/02/15 09:13:31;;;;;;;18.40;12.90;;;7.60;99.90;;;;;;5064665;28;20040;-75
2022/02/15 09:15:57;;;;;;;21.85;13.90;;;7.60;99.90;;;;;;5069467;28;20080;-76
2022/02/15 09:18:22;;;;;;;18.40;11.90;;;7.60;99.90;;;;;;5080169;28;20576;-75
2022/02/15 09:20:48;;;;;;;23.88;14.40;;;7.60;99.90;;;;;;5067709;28;20604;-75
2022/02/15 09:23:14;;;;;;;21.98;11.88;;;7.60;99.90;;;;;;5073230;28;20477;-75
2022/02/15 09:25:40;;;;;;;23.10;12.40;;;7.60;99.90;;;;;;5062818;28;20052;-75
2022/02/15 09:28:06;;;;;;;19.50;11.65;;;7.60;99.90;;;;;;5065385;28;20037;-75
2022/02/15 09:30:31;;;;;;;17.45;10.73;;;7.70;99.90;;;;;;5070700;28;20093;-75
2022/02/15 09:32:57;;;;;;;17.92;11.00;;;7.70;99.90;;;;;;5069825;28;20048;-74
2022/02/15 09:35:22;;;;;;;15.75;10.00;;;7.80;99.90;;;;;;5070549;28;20050;-75
2022/02/15 09:37:48;;;;;;;17.17;9.00;;;7.90;99.90;;;;;;5064645;28;20043;-75
2022/02/15 09:40:14;;;;;;;16.70;9.63;;;8.10;99.90;;;;;;5064091;28;20035;-75
2022/02/15 09:42:40;;;;;;;13.45;8.52;;;8.10;99.90;;;;;;5069694;28;20037;-75
2022/02/15 09:45:09;;;;;;;15.00;8.00;;;8.20;99.90;;;;;;5072377;28;20052;-75
2022/02/15 09:47:36;;;;;;;14.32;7.40;;;8.20;99.90;;;;;;5068310;28;20059;-75
2022/02/15 09:50:07;;;;;;;13.23;8.23;;;8.20;99.90;;;;;;5047091;28;20109;-76
2022/02/15 09:52:33;;;;;;;14.45;8.18;;;8.30;99.90;;;;;;5085158;28;20048;-75
2022/02/15 09:55:00;;;;;;;13.20;6.65;;;8.30;99.90;;;;;;5062545;28;20467;-75
2022/02/15 09:57:25;;;;;;;12.68;5.97;;;8.30;99.90;;;;;;5055490;28;20363;-76
2022/02/15 09:59:53;;;;;;;11.70;5.68;;;8.40;99.90;;;;;;5048197;28;20040;-75
2022/02/15 10:02:23;;;;;;;16.48;7.32;;;8.60;99.90;;;;;;5047528;28;20032;-75
2022/02/15 10:04:56;;;;;;;12.65;5.57;;;8.60;99.90;;;;;;5047343;28;20040;-75
2022/02/15 10:07:23;;;;;;;10.00;5.70;;;8.70;99.90;;;;;;5067716;28;20385;-75
2022/02/15 10:09:50;;;;;;;10.40;5.30;;;8.70;99.90;;;;;;5064624;28;20124;-75
2022/02/15 10:12:16;;;;;;;12.73;5.47;;;8.80;99.90;;;;;;5062792;28;20064;-75
2022/02/15 10:14:44;;;;;;;11.02;4.95;;;8.90;99.90;;;;;;5060855;28;20029;-75
2022/02/15 10:17:15;;;;;;;7.55;4.47;;;8.90;99.90;;;;;;5047218;28;20107;-75
2022/02/15 10:19:42;;;;;;;12.02;5.00;;;9.00;99.90;;;;;;5067728;28;20047;-75
2022/02/15 10:22:09;;;;;;;10.35;4.75;;;9.00;99.90;;;;;;5052291;28;20047;-75
2022/02/15 10:24:37;;;;;;;10.10;4.80;;;9.00;99.90;;;;;;5052010;28;20066;-75
2022/02/15 10:27:06;;;;;;;9.35;4.90;;;9.00;99.90;;;;;;5052788;28;20489;-75
2022/02/15 10:29:35;;;;;;;11.40;4.82;;;9.00;99.90;;;;;;5058725;28;20033;-75
2022/02/15 10:32:06;;;;;;;12.73;5.10;;;9.20;99.90;;;;;;5047207;28;20120;-75
2022/02/15 10:34:32;;;;;;;8.98;5.82;;;9.20;99.90;;;;;;5058481;28;20051;-75
2022/02/15 10:36:59;;;;;;;7.57;4.38;;;9.20;99.90;;;;;;5064886;28;20040;-75
2022/02/15 10:40:02;;;;;;;10.32;4.97;;;9.30;99.90;;;;;;5064011;28;20041;-75
2022/02/15 10:42:30;;;;;;;10.95;3.50;;;9.30;99.90;;;;;;4979836;28;20039;-75
2022/02/15 10:45:00;;;;;;;10.15;4.90;;;9.40;99.90;;;;;;5033385;28;20060;-75
2022/02/15 10:47:46;;;;;;;5.63;3.90;;;9.50;99.90;;;;;;5060583;28;20047;-75
2022/02/15 10:50:16;;;;;;;8.15;3.70;;;9.50;99.90;;;;;;5053989;28;20125;-75
2022/02/15 10:52:42;;;;;;;6.50;3.47;;;9.40;99.90;;;;;;5069682;28;20049;-75
2022/02/15 10:55:08;;;;;;;8.48;4.22;;;9.40;99.90;;;;;;5058708;28;20037;-75
2022/02/15 10:57:38;;;;;;;7.68;3.65;;;9.30;99.90;;;;;;5052771;28;20135;-75
2022/02/15 11:00:10;;;;;;;7.35;3.75;;;9.30;99.90;;;;;;5058683;28;20021;-75
2022/02/15 11:02:38;;;;;;;7.22;3.13;;;9.30;99.90;;;;;;5066368;28;20051;-75
2022/02/15 11:05:06;;;;;;;8.02;3.78;;;9.30;99.90;;;;;;5064653;28;20047;-75
2022/02/15 11:07:33;;;;;;;9.02;4.00;;;9.30;99.90;;;;;;5066974;28;20040;-75
2022/02/15 11:10:39;;;;;;;10.52;3.80;;;9.20;99.90;;;;;;5076870;28;20367;-75
2022/02/15 11:13:05;;;;;;;8.10;2.88;;;9.30;99.90;;;;;;5061118;28;20120;-75
2022/02/15 11:15:34;;;;;;;6.90;3.25;;;9.30;99.90;;;;;;5066445;28;20048;-76
2022/02/15 11:18:02;;;;;;;10.05;2.90;;;9.30;99.90;;;;;;5055831;28;20585;-76
2022/02/15 11:20:50;;;;;;;6.93;2.42;;;9.30;99.90;;;;;;5075129;28;20036;-76
2022/02/15 11:23:21;;;;;;;5.10;1.92;;;9.40;99.90;;;;;;5052735;28;20033;-75
2022/02/15 11:25:49;;;;;;;8.43;2.22;;;9.50;99.90;;;;;;5052098;28;20050;-76
2022/02/15 11:28:16;;;;;;;7.13;1.90;;;9.40;99.90;;;;;;5069151;28;20048;-75
2022/02/15 11:30:52;;;;;;;4.95;1.92;;;9.50;99.90;;;;;;5080243;28;20098;-75
2022/02/15 11:33:20;;;;;;;5.40;2.00;;;9.40;99.90;;;;;;5064258;28;20045;-75
2022/02/15 11:35:51;;;;;;;6.00;2.38;;;9.30;99.90;;;;;;5080672;28;20052;-75
2022/02/15 11:38:16;;;;;;;8.07;2.80;;;9.20;99.90;;;;;;5048101;28;20125;-75
2022/02/15 11:40:42;;;;;;;6.03;2.53;;;9.20;99.90;;;;;;5069995;28;20132;-75
2022/02/15 11:43:07;;;;;;;9.52;3.17;;;9.20;99.90;;;;;;5055733;28;20055;-75
2022/02/15 11:45:38;;;;;;;7.10;2.78;;;9.30;99.90;;;;;;5069679;28;20094;-75
2022/02/15 11:48:06;;;;;;;8.07;2.80;;;9.30;99.90;;;;;;5067435;28;20425;-75
2022/02/15 11:50:51;;;;;;;7.40;2.53;;;9.30;99.90;;;;;;5067533;28;20048;-74
2022/02/15 11:53:17;;;;;;;9.45;2.72;;;9.40;99.90;;;;;;5065914;28;20048;-75
2022/02/15 11:55:44;;;;;;;9.15;2.78;;;9.30;99.90;;;;;;5071368;28;20040;-75
2022/02/15 11:58:10;;;;;;;6.38;2.22;;;9.20;99.90;;;;;;5071929;28;20367;-75
2022/02/15 12:00:38;;;;;;;8.30;2.70;;;9.10;99.90;;;;;;5076948;28;20062;-75
2022/02/15 12:03:05;;;;;;;4.80;2.05;;;9.10;99.90;;;;;;5065345;28;20110;-75
2022/02/15 12:05:34;;;;;;;6.55;2.20;;;9.20;99.90;;;;;;5069233;28;20048;-75
2022/02/15 12:07:59;;;;;;;6.28;1.92;;;9.20;99.90;;;;;;5061485;28;20049;-75
2022/02/15 12:10:35;;;;;;;6.40;1.55;;;9.20;99.90;;;;;;5068733;28;20033;-75
2022/02/15 12:13:01;;;;;;;6.03;1.70;;;9.30;99.90;;;;;;5079430;28;20040;-75
2022/02/15 12:15:29;;;;;;;5.40;2.15;;;9.50;99.90;;;;;;5065721;28;20106;-74
2022/02/15 12:17:55;;;;;;;6.03;1.75;;;9.60;99.90;;;;;;5071748;28;20051;-75
2022/02/15 12:20:21;;;;;;;7.05;1.65;;;9.60;99.90;;;;;;5068840;28;20036;-74
2022/02/15 12:22:53;;;;;;;3.97;1.60;;;9.60;99.90;;;;;;5042946;28;20055;-75
2022/02/15 12:25:19;;;;;;;7.95;2.00;;;9.60;99.90;;;;;;5069579;28;20115;-75
2022/02/15 12:27:46;;;;;;;4.07;1.70;;;9.50;99.90;;;;;;5071489;28;20132;-75
2022/02/15 12:30:14;;;;;;;5.95;1.90;;;9.50;99.90;;;;;;5065689;28;20787;-75
2022/02/15 12:32:43;;;;;;;6.05;2.10;;;9.40;99.90;;;;;;5047671;28;20645;-75
2022/02/15 12:35:09;;;;;;;4.22;1.48;;;9.40;99.90;;;;;;5065037;28;20049;-75
2022/02/15 12:37:35;;;;;;;4.40;1.50;;;9.40;99.90;;;;;;5056647;28;20043;-75
2022/02/15 12:40:03;;;;;;;7.40;1.40;;;9.50;99.90;;;;;;5061932;28;20052;-75
2022/02/15 12:42:29;;;;;;;2.83;1.35;;;9.50;99.90;;;;;;5068033;28;20508;-76
2022/02/15 12:44:55;;;;;;;6.72;1.63;;;9.40;99.90;;;;;;5067489;28;20067;-75
2022/02/15 12:47:21;;;;;;;7.55;1.45;;;9.50;99.90;;;;;;5069441;28;20105;-75
2022/02/15 12:49:46;;;;;;;7.88;1.50;;;9.40;99.90;;;;;;5069039;28;20048;-75
2022/02/15 12:52:13;;;;;;;4.70;1.52;;;9.50;99.90;;;;;;5068995;28;20052;-75
2022/02/15 12:54:49;;;;;;;5.80;1.52;;;9.50;99.90;;;;;;5045239;28;20486;-75